Terminal Aerodrome Forecast
Issued by NWS Albany, NY

Current Version | Previous Version | Text Only | Print | Product List | Glossary On
Versions: 1 2 3 4 5 6 7 8 9 10 11 12 13 14
837
FTUS41 KALY 161735
TAFALB
TAF
KALB 161735Z 1618/1718 19008KT P6SM SCT250
     FM162300 20004KT P6SM BKN250
     FM170900 00000KT P6SM BKN100
     FM171500 VRB03KT P6SM OVC050=

USA.gov is the U.S. government's official web portal to all federal, state and local government web resources and services.